createdAt,value
2019-03-15T00:01:50.919Z,89.23
2019-03-15T00:04:19.501Z,89.32
2019-03-15T00:06:50.323Z,89.43
2019-03-15T00:09:18.790Z,89.49
2019-03-15T00:11:47.348Z,89.33
2019-03-15T00:14:15.876Z,89.33
2019-03-15T00:16:47.273Z,89.25
2019-03-15T00:19:15.746Z,89.40
2019-03-15T00:21:44.290Z,89.14
2019-03-15T00:24:14.405Z,88.69
2019-03-15T00:26:42.918Z,88.57
2019-03-15T00:29:11.395Z,88.23
2019-03-15T00:31:39.883Z,88.10
2019-03-15T00:34:09.634Z,88.00
2019-03-15T00:36:38.116Z,87.82
2019-03-15T00:39:07.068Z,87.70
2019-03-15T00:41:35.694Z,87.87
2019-03-15T00:44:04.349Z,87.79
2019-03-15T00:46:32.981Z,87.21
2019-03-15T00:49:01.488Z,86.83
2019-03-15T00:51:30.090Z,86.75
2019-03-15T00:54:01.142Z,86.52
2019-03-15T00:56:29.725Z,86.71
2019-03-15T00:58:58.380Z,86.67
2019-03-15T01:01:26.884Z,86.29
2019-03-15T01:03:55.529Z,86.58
2019-03-15T01:06:24.017Z,87.05
2019-03-15T01:08:52.571Z,86.93
2019-03-15T01:11:21.024Z,86.52
2019-03-15T01:13:49.518Z,86.04
2019-03-15T01:16:17.970Z,86.17
2019-03-15T01:18:46.503Z,85.74
2019-03-15T01:21:14.957Z,86.08
2019-03-15T01:23:46.368Z,86.29
2019-03-15T01:26:14.851Z,86.74
2019-03-15T01:28:43.326Z,86.92
2019-03-15T01:31:11.823Z,87.19
2019-03-15T01:33:40.371Z,87.53
2019-03-15T01:36:08.910Z,87.89
2019-03-15T01:38:37.371Z,88.24
2019-03-15T01:41:07.643Z,88.41
2019-03-15T01:43:36.107Z,88.12
2019-03-15T01:46:06.215Z,88.23
2019-03-15T01:48:35.625Z,88.36
2019-03-15T01:51:10.523Z,88.15
2019-03-15T01:53:39.021Z,88.05
2019-03-15T01:56:07.501Z,87.86
2019-03-15T01:58:35.957Z,87.46
2019-03-15T02:01:04.765Z,87.24
2019-03-15T02:03:33.229Z,87.09
2019-03-15T02:06:01.712Z,86.76
2019-03-15T02:08:30.183Z,86.07
2019-03-15T02:10:59.534Z,86.44
2019-03-15T02:13:28.005Z,85.86
2019-03-15T02:15:56.463Z,86.43
2019-03-15T02:18:24.942Z,86.21
2019-03-15T02:20:54.577Z,86.37
2019-03-15T02:23:23.554Z,85.97
2019-03-15T02:25:52.085Z,86.46
2019-03-15T02:28:21.049Z,85.99
2019-03-15T02:30:49.640Z,86.35
2019-03-15T02:33:18.097Z,86.09
2019-03-15T02:35:47.233Z,86.04
2019-03-15T02:38:15.842Z,86.07
2019-03-15T02:40:44.412Z,86.04
2019-03-15T02:43:14.481Z,86.22
2019-03-15T02:45:42.955Z,86.29
2019-03-15T02:48:11.437Z,86.06
2019-03-15T02:50:41.012Z,85.84
2019-03-15T02:53:09.975Z,86.07
2019-03-15T02:55:38.493Z,86.22
2019-03-15T02:58:06.970Z,86.38
2019-03-15T03:00:35.426Z,86.32
2019-03-15T03:03:03.941Z,86.32
2019-03-15T03:05:33.599Z,86.07
2019-03-15T03:08:02.750Z,86.17
2019-03-15T03:10:32.779Z,86.43
2019-03-15T03:13:01.304Z,85.98
2019-03-15T03:15:30.264Z,86.21
2019-03-15T03:17:58.839Z,86.47
2019-03-15T03:20:27.334Z,86.24
2019-03-15T03:22:55.785Z,86.58
2019-03-15T03:25:25.985Z,86.66
2019-03-15T03:27:54.443Z,86.54
2019-03-15T03:30:23.132Z,86.72
2019-03-15T03:32:51.662Z,86.58
2019-03-15T03:35:20.409Z,86.66
2019-03-15T03:37:49.041Z,86.40
2019-03-15T03:40:20.007Z,86.58
2019-03-15T03:42:47.906Z,86.34
2019-03-15T03:45:16.570Z,86.56
2019-03-15T03:47:45.095Z,86.29
2019-03-15T03:50:13.752Z,86.52
2019-03-15T03:52:42.224Z,86.34
2019-03-15T03:55:10.971Z,86.37
2019-03-15T03:57:40.306Z,86.93
2019-03-15T04:00:14.606Z,87.07
2019-03-15T04:02:44.750Z,87.05
2019-03-15T04:05:13.410Z,86.81
2019-03-15T04:07:45.104Z,86.70
2019-03-15T04:10:15.272Z,86.63
2019-03-15T04:12:45.268Z,86.61
2019-03-15T04:15:14.008Z,86.49
2019-03-15T04:17:42.657Z,86.31
2019-03-15T04:20:12.837Z,86.49
2019-03-15T04:22:41.338Z,86.65
2019-03-15T04:25:13.914Z,86.66
2019-03-15T04:27:42.385Z,86.27
2019-03-15T04:30:13.489Z,86.61
2019-03-15T04:32:41.952Z,86.36
2019-03-15T04:35:10.683Z,86.42
2019-03-15T04:37:39.462Z,86.59
2019-03-15T04:40:12.743Z,86.39
2019-03-15T04:42:41.330Z,86.53
2019-03-15T04:45:09.956Z,86.33
2019-03-15T04:47:38.498Z,86.26
2019-03-15T04:50:07.859Z,86.61
2019-03-15T04:52:38.716Z,86.70
2019-03-15T04:55:07.918Z,86.66
2019-03-15T04:57:36.994Z,86.20
2019-03-15T05:00:11.592Z,86.49
2019-03-15T05:02:42.499Z,86.58
2019-03-15T05:05:11.201Z,86.83
2019-03-15T05:07:39.710Z,86.83
2019-03-15T05:10:09.839Z,87.04
2019-03-15T05:12:38.736Z,87.08
2019-03-15T05:15:09.490Z,87.31
2019-03-15T05:17:38.002Z,87.50
2019-03-15T05:20:08.935Z,87.43
2019-03-15T05:22:37.487Z,87.39
2019-03-15T05:25:07.393Z,87.40
2019-03-15T05:27:35.945Z,87.32
2019-03-15T05:30:06.774Z,87.12
2019-03-15T05:32:35.252Z,87.12
2019-03-15T05:35:04.406Z,86.87
2019-03-15T05:37:32.877Z,86.49
2019-03-15T05:40:02.376Z,86.62
2019-03-15T05:42:31.855Z,86.72
2019-03-15T05:45:00.439Z,86.71
2019-03-15T05:47:28.873Z,86.64
2019-03-15T05:49:57.395Z,86.96
2019-03-15T05:52:27.503Z,86.61
2019-03-15T05:54:56.003Z,86.47
2019-03-15T05:57:24.475Z,86.68
2019-03-15T05:59:52.990Z,86.69
2019-03-15T06:02:28.448Z,86.51
2019-03-15T06:04:56.246Z,86.66
2019-03-15T06:07:24.718Z,86.22
2019-03-15T06:09:53.224Z,86.13
2019-03-15T06:12:23.245Z,86.23
2019-03-15T06:14:51.703Z,86.40
2019-03-15T06:17:20.172Z,86.26
2019-03-15T06:19:48.648Z,86.08
2019-03-15T06:22:17.111Z,85.79
2019-03-15T06:24:45.570Z,85.71
2019-03-15T06:27:14.104Z,85.87
2019-03-15T06:29:42.506Z,86.08
2019-03-15T06:32:11.392Z,85.93
2019-03-15T06:34:40.212Z,85.63
2019-03-15T06:37:08.670Z,85.51
2019-03-15T06:39:37.657Z,85.91
2019-03-15T06:42:09.612Z,85.53
2019-03-15T06:44:38.017Z,85.67
2019-03-15T06:47:06.542Z,85.58
2019-03-15T06:49:35.015Z,85.55
2019-03-15T06:52:03.462Z,85.63
2019-03-15T06:54:33.634Z,85.48
2019-03-15T06:57:02.110Z,85.44
2019-03-15T06:59:30.578Z,85.74
2019-03-15T07:01:59.051Z,85.65
2019-03-15T07:04:31.146Z,85.65
2019-03-15T07:06:59.573Z,85.46
2019-03-15T07:09:30.788Z,85.62
2019-03-15T07:12:08.927Z,85.35
2019-03-15T07:14:28.480Z,85.51
2019-03-15T07:16:56.931Z,85.45
2019-03-15T07:19:30.026Z,84.69
2019-03-15T07:21:58.618Z,84.72
2019-03-15T07:24:27.108Z,85.17
2019-03-15T07:26:55.577Z,85.49
2019-03-15T07:29:24.131Z,85.11
2019-03-15T07:31:52.606Z,85.38
2019-03-15T07:34:21.087Z,85.03
2019-03-15T07:36:49.570Z,84.44
2019-03-15T07:39:18.041Z,84.41
2019-03-15T07:41:46.816Z,84.70
2019-03-15T07:44:15.294Z,84.45
2019-03-15T07:46:43.804Z,84.20
2019-03-15T07:49:23.712Z,84.26
2019-03-15T07:51:52.575Z,84.40
2019-03-15T07:54:23.707Z,84.22
2019-03-15T07:56:52.241Z,84.54
2019-03-15T07:59:20.708Z,84.06
2019-03-15T08:01:49.190Z,83.59
2019-03-15T08:04:18.169Z,83.78
2019-03-15T08:06:46.647Z,83.65
2019-03-15T08:09:15.119Z,84.08
2019-03-15T08:11:43.613Z,83.93
2019-03-15T08:14:12.090Z,83.46
2019-03-15T08:16:40.665Z,83.74
2019-03-15T08:19:11.765Z,82.61
2019-03-15T08:21:40.237Z,82.92
2019-03-15T08:24:08.782Z,82.70
2019-03-15T08:26:37.263Z,82.47
2019-03-15T08:29:09.418Z,82.86
2019-03-15T08:31:36.367Z,82.29
2019-03-15T08:34:05.050Z,81.44
2019-03-15T08:36:33.591Z,82.16
2019-03-15T08:39:02.063Z,82.47
2019-03-15T08:41:30.609Z,82.48
2019-03-15T08:43:59.095Z,82.35
2019-03-15T08:46:27.558Z,82.67
2019-03-15T08:48:56.041Z,82.53
2019-03-15T08:51:24.996Z,82.34
2019-03-15T08:53:53.532Z,81.59
2019-03-15T08:56:22.027Z,81.08
2019-03-15T08:58:50.598Z,81.58
2019-03-15T09:01:19.139Z,80.62
2019-03-15T09:03:47.690Z,81.01
2019-03-15T09:06:16.285Z,81.15
2019-03-15T09:08:51.158Z,80.40
2019-03-15T09:11:19.775Z,80.64
2019-03-15T09:13:49.362Z,81.25
2019-03-15T09:16:19.397Z,80.45
2019-03-15T09:18:49.453Z,80.91
2019-03-15T09:21:17.947Z,80.56
2019-03-15T09:23:46.443Z,80.58
2019-03-15T09:26:14.936Z,80.38
2019-03-15T09:28:43.903Z,81.19
2019-03-15T09:31:12.464Z,80.30
2019-03-15T09:33:44.065Z,80.19
2019-03-15T09:36:12.567Z,79.74
2019-03-15T09:38:41.112Z,79.73
2019-03-15T09:41:09.664Z,80.19
2019-03-15T09:43:38.196Z,81.39
2019-03-15T09:46:11.204Z,79.99
2019-03-15T09:48:39.759Z,79.24
2019-03-15T09:51:08.528Z,77.67
2019-03-15T09:53:37.024Z,79.38
2019-03-15T09:56:05.567Z,77.83
2019-03-15T09:58:35.427Z,76.56
2019-03-15T10:01:04.300Z,77.72
2019-03-15T10:03:33.019Z,78.78
2019-03-15T10:06:14.281Z,77.53
2019-03-15T10:08:31.696Z,77.35
2019-03-15T10:11:00.182Z,76.46
2019-03-15T10:13:28.666Z,76.95
2019-03-15T10:15:57.148Z,75.28
2019-03-15T10:18:25.586Z,75.90
2019-03-15T10:20:54.069Z,76.27
2019-03-15T10:23:22.573Z,75.21
2019-03-15T10:25:51.485Z,76.15
2019-03-15T10:28:22.744Z,75.50
2019-03-15T10:30:53.915Z,76.22
2019-03-15T10:33:22.460Z,77.00
2019-03-15T10:35:52.565Z,75.76
2019-03-15T10:38:21.850Z,77.26
2019-03-15T10:40:50.318Z,76.25
2019-03-15T10:43:20.070Z,78.32
2019-03-15T10:45:48.535Z,80.48
2019-03-15T10:48:25.405Z,80.16
2019-03-15T10:50:50.434Z,80.94
2019-03-15T10:53:18.969Z,80.47
2019-03-15T10:56:00.273Z,79.48
2019-03-15T10:58:20.605Z,78.64
2019-03-15T11:00:49.164Z,80.16
2019-03-15T11:03:18.790Z,80.19
2019-03-15T11:05:47.240Z,81.99
2019-03-15T11:08:15.811Z,83.45
2019-03-15T11:10:44.313Z,83.49
2019-03-15T11:13:12.796Z,84.48
2019-03-15T11:15:43.007Z,85.12
2019-03-15T11:18:11.468Z,84.71
2019-03-15T11:20:40.030Z,84.73
2019-03-15T11:23:08.479Z,84.32
2019-03-15T11:25:37.155Z,84.54
2019-03-15T11:28:05.622Z,85.09
2019-03-15T11:30:37.147Z,85.01
2019-03-15T11:33:05.765Z,85.87
2019-03-15T11:35:34.263Z,86.15
2019-03-15T11:38:03.101Z,85.57
2019-03-15T11:40:33.611Z,85.00
2019-03-15T11:43:01.785Z,86.59
2019-03-15T11:45:31.794Z,86.65
2019-03-15T11:48:03.946Z,87.23
2019-03-15T11:50:33.561Z,87.96
2019-03-15T11:53:02.021Z,88.55
2019-03-15T11:55:30.675Z,88.87
2019-03-15T11:57:59.221Z,88.91
2019-03-15T12:00:27.766Z,88.90
2019-03-15T12:02:57.953Z,89.21
2019-03-15T12:05:29.578Z,89.44
2019-03-15T12:07:58.207Z,89.63
2019-03-15T12:10:26.736Z,89.68
2019-03-15T12:12:55.572Z,89.76
2019-03-15T12:15:24.181Z,89.92
2019-03-15T12:17:52.923Z,89.97
2019-03-15T12:20:21.594Z,89.95
2019-03-15T12:22:50.269Z,89.63
2019-03-15T12:25:18.959Z,89.02
2019-03-15T12:27:47.419Z,88.84
2019-03-15T12:30:17.741Z,89.89
2019-03-15T12:32:46.455Z,90.25
2019-03-15T12:35:15.859Z,90.24
2019-03-15T12:37:44.374Z,90.14
2019-03-15T12:40:14.518Z,90.34
2019-03-15T12:42:43.189Z,90.22
2019-03-15T12:45:12.720Z,90.48
2019-03-15T12:47:41.271Z,90.66
2019-03-15T12:50:15.587Z,90.74
2019-03-15T12:52:48.438Z,90.90
2019-03-15T12:55:15.218Z,90.90
2019-03-15T12:57:49.307Z,90.88
2019-03-15T13:00:20.199Z,90.92
2019-03-15T13:02:50.286Z,91.05
2019-03-15T13:05:20.452Z,91.08
2019-03-15T13:07:49.058Z,91.14
2019-03-15T13:10:19.434Z,91.13
2019-03-15T13:12:48.234Z,91.26
2019-03-15T13:15:19.855Z,91.33
2019-03-15T13:17:50.079Z,91.32
2019-03-15T13:20:29.132Z,91.35
2019-03-15T13:22:56.819Z,91.36
2019-03-15T13:25:27.436Z,91.45
2019-03-15T13:27:57.658Z,91.53
2019-03-15T13:30:26.780Z,91.56
2019-03-15T13:32:57.235Z,91.61
2019-03-15T13:35:26.228Z,91.70
2019-03-15T13:38:04.733Z,91.59
2019-03-15T13:40:35.287Z,91.50
2019-03-15T13:43:04.738Z,91.47
2019-03-15T13:45:33.196Z,91.45
2019-03-15T13:48:01.812Z,91.36
2019-03-15T13:50:30.262Z,91.34
2019-03-15T13:53:00.365Z,91.03
2019-03-15T13:55:28.826Z,90.77
2019-03-15T13:57:57.358Z,90.71
2019-03-15T14:00:29.107Z,90.71
2019-03-15T14:02:58.339Z,90.74
2019-03-15T14:05:27.012Z,90.18
2019-03-15T14:07:55.803Z,89.88
2019-03-15T14:10:27.071Z,89.98
2019-03-15T14:12:55.562Z,90.13
2019-03-15T14:15:24.294Z,90.13
2019-03-15T14:17:56.119Z,88.31
2019-03-15T14:20:24.701Z,87.93
2019-03-15T14:22:55.955Z,86.44
2019-03-15T14:25:27.963Z,84.96
2019-03-15T14:27:56.648Z,85.32
2019-03-15T14:30:25.296Z,84.28
2019-03-15T14:32:53.748Z,83.82
2019-03-15T14:35:22.491Z,84.06
2019-03-15T14:37:52.667Z,83.00
2019-03-15T14:40:22.529Z,82.28
2019-03-15T14:42:55.273Z,80.72
2019-03-15T14:45:24.249Z,79.25
2019-03-15T14:47:52.766Z,77.64
2019-03-15T14:50:23.335Z,76.80
2019-03-15T14:52:53.405Z,78.33
2019-03-15T14:55:23.571Z,76.57
2019-03-15T14:57:54.997Z,76.77
2019-03-15T15:00:25.657Z,75.35
2019-03-15T15:02:55.667Z,72.33
2019-03-15T15:05:24.292Z,72.89
2019-03-15T15:07:52.821Z,72.72
2019-03-15T15:10:22.959Z,73.28
2019-03-15T15:12:53.117Z,71.82
2019-03-15T15:15:21.872Z,72.22
2019-03-15T15:17:53.326Z,72.19
2019-03-15T15:20:21.994Z,72.44
2019-03-15T15:22:50.470Z,71.54
2019-03-15T15:25:19.139Z,72.15
2019-03-15T15:27:47.797Z,71.35
2019-03-15T15:30:17.235Z,69.29
2019-03-15T15:32:45.721Z,69.14
2019-03-15T15:35:14.883Z,70.05
2019-03-15T15:37:45.523Z,71.74
2019-03-15T15:40:16.121Z,70.57
2019-03-15T15:42:45.341Z,69.56
2019-03-15T15:45:14.373Z,70.92
2019-03-15T15:47:43.011Z,69.79
2019-03-15T15:50:17.926Z,70.26
2019-03-15T15:52:48.133Z,71.27
2019-03-15T15:55:42.499Z,70.44
2019-03-15T15:58:17.866Z,69.86
2019-03-15T16:00:41.155Z,72.13
2019-03-15T16:03:09.711Z,68.39
2019-03-15T16:05:38.194Z,66.92
2019-03-15T16:08:06.827Z,68.54
2019-03-15T16:10:37.429Z,67.99
2019-03-15T16:13:16.563Z,67.62
2019-03-15T16:15:36.232Z,66.56
2019-03-15T16:18:04.786Z,67.54
2019-03-15T16:20:33.258Z,67.42
2019-03-15T16:23:04.455Z,68.62
2019-03-15T16:25:32.929Z,67.88
2019-03-15T16:28:01.409Z,68.12
2019-03-15T16:30:29.961Z,67.11
2019-03-15T16:33:03.773Z,68.53
2019-03-15T16:35:33.775Z,67.62
2019-03-15T16:38:02.463Z,68.17
2019-03-15T16:40:31.031Z,66.87
2019-03-15T16:43:06.026Z,66.47
2019-03-15T16:45:31.490Z,67.17
2019-03-15T16:48:00.052Z,67.26
2019-03-15T16:50:28.582Z,65.85
2019-03-15T16:52:57.836Z,66.25
2019-03-15T16:55:27.846Z,65.99
2019-03-15T16:57:59.338Z,66.78
2019-03-15T17:00:28.025Z,67.71
2019-03-15T17:02:56.644Z,66.85
2019-03-15T17:05:26.926Z,67.00
2019-03-15T17:07:55.397Z,67.02
2019-03-15T17:10:29.763Z,67.51
2019-03-15T17:12:58.482Z,66.21
2019-03-15T17:15:29.761Z,66.29
2019-03-15T17:17:58.325Z,67.65
2019-03-15T17:20:26.924Z,67.15
2019-03-15T17:22:55.405Z,68.47
2019-03-15T17:25:24.047Z,68.39
2019-03-15T17:27:52.542Z,66.95
2019-03-15T17:30:21.229Z,67.06
2019-03-15T17:32:49.832Z,67.23
2019-03-15T17:35:19.610Z,66.05
2019-03-15T17:37:49.352Z,65.74
2019-03-15T17:40:23.164Z,67.28
2019-03-15T17:42:51.746Z,66.69
2019-03-15T17:45:20.357Z,66.73
2019-03-15T17:47:48.904Z,66.12
2019-03-15T17:50:22.823Z,66.72
2019-03-15T17:52:51.469Z,68.39
2019-03-15T17:55:27.339Z,68.00
2019-03-15T17:57:55.722Z,66.87
2019-03-15T18:00:42.760Z,67.67
2019-03-15T18:03:20.831Z,67.65
2019-03-15T18:05:43.799Z,67.74
2019-03-15T18:08:15.194Z,67.97
2019-03-15T18:10:43.711Z,67.24
2019-03-15T18:13:12.251Z,66.24
2019-03-15T18:15:40.800Z,67.13
2019-03-15T18:18:09.359Z,67.15
2019-03-15T18:20:37.959Z,66.32
2019-03-15T18:23:10.942Z,66.37
2019-03-15T18:25:41.812Z,65.42
2019-03-15T18:28:10.813Z,66.49
2019-03-15T18:30:39.355Z,65.88
2019-03-15T18:33:07.896Z,65.98
2019-03-15T18:35:36.423Z,65.88
2019-03-15T18:38:07.704Z,66.61
2019-03-15T18:40:36.188Z,67.41
2019-03-15T18:43:04.663Z,66.55
2019-03-15T18:45:33.352Z,67.62
2019-03-15T18:48:02.321Z,67.91
2019-03-15T18:50:30.874Z,67.62
2019-03-15T18:52:59.358Z,67.82
2019-03-15T18:55:27.824Z,67.39
2019-03-15T18:57:58.732Z,68.04
2019-03-15T19:00:27.546Z,66.94
2019-03-15T19:02:56.032Z,66.84
2019-03-15T19:05:24.587Z,67.39
2019-03-15T19:07:53.029Z,67.54
2019-03-15T19:10:22.400Z,67.43
2019-03-15T19:12:53.421Z,66.49
2019-03-15T19:15:22.492Z,66.51
2019-03-15T19:17:51.086Z,65.84
2019-03-15T19:20:20.647Z,64.72
2019-03-15T19:22:49.246Z,66.28
2019-03-15T19:25:19.468Z,66.18
2019-03-15T19:27:48.055Z,65.85
2019-03-15T19:30:21.515Z,66.58
2019-03-15T19:32:50.039Z,66.96
2019-03-15T19:35:18.834Z,67.11
2019-03-15T19:37:47.385Z,67.51
2019-03-15T19:40:18.114Z,68.41
2019-03-15T19:42:46.655Z,67.50
2019-03-15T19:45:15.967Z,67.78
2019-03-15T19:47:44.524Z,66.71
2019-03-15T19:50:22.081Z,66.51
2019-03-15T19:52:50.576Z,66.85
2019-03-15T19:55:19.228Z,66.40
2019-03-15T19:57:47.766Z,67.49
2019-03-15T20:00:18.020Z,66.25
2019-03-15T20:02:46.499Z,66.54
2019-03-15T20:05:15.474Z,65.93
2019-03-15T20:07:44.132Z,66.47
2019-03-15T20:10:16.521Z,66.67
2019-03-15T20:12:44.421Z,67.55
2019-03-15T20:15:14.607Z,67.35
2019-03-15T20:17:44.716Z,67.01
2019-03-15T20:20:19.115Z,67.48
2019-03-15T20:22:47.603Z,67.86
2019-03-15T20:25:19.483Z,67.59
2019-03-15T20:27:47.967Z,67.98
2019-03-15T20:30:26.157Z,68.46
2019-03-15T20:32:51.842Z,68.29
2019-03-15T20:35:20.529Z,69.09
2019-03-15T20:37:49.056Z,70.10
2019-03-15T20:40:17.743Z,69.78
2019-03-15T20:42:46.196Z,69.28
2019-03-15T20:45:23.327Z,69.33
2019-03-15T20:47:51.794Z,68.79
2019-03-15T20:50:20.535Z,68.40
2019-03-15T20:52:49.019Z,69.02
2019-03-15T20:55:17.697Z,68.36
2019-03-15T20:57:46.261Z,68.73
2019-03-15T21:00:34.411Z,68.48
2019-03-15T21:02:50.680Z,68.21
2019-03-15T21:05:22.077Z,68.78
2019-03-15T21:07:51.018Z,68.46
2019-03-15T21:10:22.671Z,69.58
2019-03-15T21:12:51.199Z,69.73
2019-03-15T21:15:19.864Z,68.87
2019-03-15T21:17:48.328Z,68.37
2019-03-15T21:20:22.357Z,68.85
2019-03-15T21:22:51.660Z,69.67
2019-03-15T21:25:25.171Z,69.55
2019-03-15T21:27:54.750Z,69.21
2019-03-15T21:30:30.158Z,68.93
2019-03-15T21:33:02.004Z,69.01
2019-03-15T21:35:30.637Z,68.32
2019-03-15T21:37:59.269Z,69.19
2019-03-15T21:40:27.772Z,69.00
2019-03-15T21:42:56.288Z,69.28
2019-03-15T21:45:24.913Z,68.90
2019-03-15T21:47:53.859Z,68.95
2019-03-15T21:50:23.274Z,68.63
2019-03-15T21:52:51.913Z,68.39
2019-03-15T21:55:20.864Z,68.19
2019-03-15T21:57:49.315Z,68.43
2019-03-15T22:00:18.917Z,69.21
2019-03-15T22:02:47.449Z,68.63
2019-03-15T22:05:16.196Z,68.89
2019-03-15T22:07:46.222Z,68.31
2019-03-15T22:10:15.789Z,69.02
2019-03-15T22:12:44.382Z,68.00
2019-03-15T22:15:16.112Z,68.55
2019-03-15T22:17:44.875Z,68.85
2019-03-15T22:20:14.826Z,69.34
2019-03-15T22:22:43.500Z,69.63
2019-03-15T22:25:12.330Z,69.38
2019-03-15T22:27:41.323Z,69.35
2019-03-15T22:30:12.103Z,69.81
2019-03-15T22:32:41.610Z,69.12
2019-03-15T22:35:10.558Z,68.90
2019-03-15T22:37:39.040Z,69.05
2019-03-15T22:40:09.960Z,68.80
2019-03-15T22:42:38.556Z,69.55
2019-03-15T22:45:09.761Z,69.09
2019-03-15T22:47:40.026Z,68.80
2019-03-15T22:50:10.022Z,68.69
2019-03-15T22:52:38.584Z,68.61
2019-03-15T22:55:11.405Z,67.77
2019-03-15T22:57:40.169Z,68.40
2019-03-15T23:00:17.903Z,68.68
2019-03-15T23:02:46.561Z,68.72
2019-03-15T23:05:15.271Z,68.70
2019-03-15T23:07:43.817Z,68.62
2019-03-15T23:10:14.122Z,69.49
2019-03-15T23:12:42.599Z,69.19
2019-03-15T23:15:12.695Z,69.17
2019-03-15T23:17:42.213Z,69.78
2019-03-15T23:20:14.365Z,69.73
2019-03-15T23:22:42.858Z,69.58
2019-03-15T23:25:13.379Z,69.92
2019-03-15T23:27:41.867Z,70.03
2019-03-15T23:30:13.029Z,69.26
2019-03-15T23:32:41.774Z,70.07
2019-03-15T23:35:10.417Z,69.78
2019-03-15T23:37:39.091Z,69.79
2019-03-15T23:40:12.237Z,68.90
2019-03-15T23:42:42.373Z,69.75
2019-03-15T23:45:11.611Z,70.60
2019-03-15T23:47:40.226Z,70.22
2019-03-15T23:50:11.424Z,69.41
2019-03-15T23:52:40.653Z,69.21
2019-03-15T23:55:09.311Z,69.22
2019-03-15T23:57:38.729Z,69.35
